createdAt,value
2019-04-25T00:01:38.275Z,49.20
2019-04-25T00:04:11.780Z,45.65
2019-04-25T00:06:44.002Z,39.83
2019-04-25T00:09:17.875Z,38.70
2019-04-25T00:11:49.350Z,58.30
2019-04-25T00:14:22.635Z,50.20
2019-04-25T00:16:54.302Z,42.90
2019-04-25T00:19:25.713Z,51.25
2019-04-25T00:22:02.418Z,51.25
2019-04-25T00:24:52.930Z,49.67
2019-04-25T00:27:25.706Z,48.78
2019-04-25T00:29:57.595Z,55.63
2019-04-25T00:32:29.168Z,61.95
2019-04-25T00:35:01.875Z,58.25
2019-04-25T00:37:34.695Z,55.28
2019-04-25T00:40:07.937Z,59.08
2019-04-25T00:42:39.459Z,51.50
2019-04-25T00:45:11.895Z,60.55
2019-04-25T00:47:44.725Z,55.78
2019-04-25T00:50:16.154Z,64.53
2019-04-25T00:52:48.317Z,57.60
2019-04-25T00:55:28.544Z,63.28
2019-04-25T00:57:55.777Z,63.83
2019-04-25T01:00:28.866Z,72.62
2019-04-25T01:03:03.377Z,67.25
2019-04-25T01:05:34.988Z,66.57
2019-04-25T01:08:06.424Z,63.87
2019-04-25T01:10:37.884Z,72.95
2019-04-25T01:13:10.985Z,70.87
2019-04-25T01:15:44.810Z,73.72
2019-04-25T01:18:16.406Z,72.37
2019-04-25T01:20:49.037Z,67.27
2019-04-25T01:23:20.479Z,77.50
2019-04-25T01:25:53.436Z,71.97
2019-04-25T01:28:25.279Z,79.20
2019-04-25T01:30:56.779Z,79.80
2019-04-25T01:33:28.334Z,75.40
2019-04-25T01:36:01.445Z,73.72
2019-04-25T01:38:37.485Z,76.45
2019-04-25T01:41:24.262Z,81.20
2019-04-25T01:43:59.632Z,95.22
2019-04-25T01:46:30.565Z,89.13
2019-04-25T01:49:01.982Z,86.20
2019-04-25T01:51:34.000Z,81.15
2019-04-25T01:54:05.342Z,88.22
2019-04-25T01:56:36.704Z,80.67
2019-04-25T01:59:08.159Z,83.45
2019-04-25T02:01:40.863Z,83.67
2019-04-25T02:04:13.239Z,81.02
2019-04-25T02:06:44.704Z,88.00
2019-04-25T02:09:17.734Z,92.37
2019-04-25T02:11:54.714Z,91.78
2019-04-25T02:14:26.998Z,87.42
2019-04-25T02:16:58.532Z,90.53
2019-04-25T02:19:31.000Z,82.92
2019-04-25T02:22:04.046Z,80.75
2019-04-25T02:24:35.550Z,90.28
2019-04-25T02:27:08.123Z,82.90
2019-04-25T02:29:39.477Z,90.53
2019-04-25T02:32:10.833Z,91.22
2019-04-25T02:34:42.190Z,93.35
2019-04-25T02:37:14.889Z,86.85
2019-04-25T02:39:46.292Z,84.17
2019-04-25T02:42:17.679Z,89.05
2019-04-25T02:44:50.682Z,82.33
2019-04-25T02:47:26.562Z,94.95
2019-04-25T02:50:11.563Z,98.07
2019-04-25T02:52:44.670Z,82.67
2019-04-25T02:55:30.833Z,87.33
2019-04-25T02:57:49.108Z,91.85
2019-04-25T03:00:24.828Z,80.50
2019-04-25T03:02:57.907Z,101.92
2019-04-25T03:05:29.995Z,85.32
2019-04-25T03:08:01.817Z,74.75
2019-04-25T03:10:34.934Z,85.55
2019-04-25T03:13:10.307Z,75.65
2019-04-25T03:15:39.785Z,82.72
2019-04-25T03:18:14.930Z,66.02
2019-04-25T03:20:49.794Z,66.47
2019-04-25T03:23:25.942Z,68.92
2019-04-25T03:25:57.314Z,60.28
2019-04-25T03:28:29.427Z,80.35
2019-04-25T03:31:02.189Z,67.60
2019-04-25T03:33:37.811Z,57.78
2019-04-25T03:36:07.845Z,66.12
2019-04-25T03:38:39.540Z,67.87
2019-04-25T03:41:10.951Z,61.77
2019-04-25T03:43:44.139Z,64.92
2019-04-25T03:46:15.692Z,63.65
2019-04-25T03:48:47.173Z,66.28
2019-04-25T03:51:18.569Z,64.15
2019-04-25T03:53:49.981Z,71.70
2019-04-25T03:56:21.377Z,61.75
2019-04-25T03:58:54.036Z,56.18
2019-04-25T04:01:25.699Z,60.92
2019-04-25T04:03:57.175Z,60.50
2019-04-25T04:06:28.955Z,64.10
2019-04-25T04:09:00.425Z,61.90
2019-04-25T04:11:33.705Z,60.88
2019-04-25T04:14:07.085Z,63.83
2019-04-25T04:16:40.180Z,69.95
2019-04-25T04:19:13.123Z,69.17
2019-04-25T04:21:47.349Z,70.65
2019-04-25T04:24:23.905Z,71.62
2019-04-25T04:27:14.467Z,70.83
2019-04-25T04:29:46.129Z,68.35
2019-04-25T04:32:18.532Z,63.50
2019-04-25T04:34:50.680Z,69.35
2019-04-25T04:37:23.589Z,58.13
2019-04-25T04:39:55.226Z,57.48
2019-04-25T04:42:26.592Z,60.00
2019-04-25T04:44:58.095Z,58.17
2019-04-25T04:47:29.552Z,46.42
2019-04-25T04:50:01.027Z,51.55
2019-04-25T04:52:34.001Z,49.63
2019-04-25T04:55:09.664Z,44.27
2019-04-25T04:57:39.755Z,44.97
2019-04-25T05:00:12.787Z,41.45
2019-04-25T05:03:01.583Z,44.75
2019-04-25T05:05:34.709Z,43.98
2019-04-25T05:08:11.072Z,45.58
2019-04-25T05:10:43.220Z,38.60
2019-04-25T05:13:16.639Z,40.85
2019-04-25T05:15:47.883Z,39.40
2019-04-25T05:18:31.578Z,38.98
2019-04-25T05:20:54.166Z,38.23
2019-04-25T05:23:25.768Z,33.73
2019-04-25T05:25:57.273Z,35.95
2019-04-25T05:28:28.645Z,36.03
2019-04-25T05:31:03.347Z,37.33
2019-04-25T05:33:33.893Z,40.88
2019-04-25T05:36:05.938Z,35.83
2019-04-25T05:38:37.618Z,35.17
2019-04-25T05:41:14.794Z,37.63
2019-04-25T05:43:46.686Z,40.05
2019-04-25T05:46:19.001Z,34.50
2019-04-25T05:48:50.633Z,37.85
2019-04-25T05:51:23.914Z,40.43
2019-04-25T05:53:56.187Z,38.15
2019-04-25T05:56:28.286Z,36.70
2019-04-25T05:58:59.793Z,41.00
2019-04-25T06:01:31.281Z,43.63
2019-04-25T06:04:05.189Z,33.00
2019-04-25T06:06:36.843Z,41.18
2019-04-25T06:09:17.675Z,37.48
2019-04-25T06:12:09.109Z,37.80
2019-04-25T06:14:40.509Z,43.20
2019-04-25T06:17:13.760Z,40.00
2019-04-25T06:19:49.540Z,41.33
2019-04-25T06:22:24.361Z,38.92
2019-04-25T06:24:57.826Z,44.80
2019-04-25T06:27:30.998Z,44.65
2019-04-25T06:30:04.474Z,40.25
2019-04-25T06:32:37.139Z,43.92
2019-04-25T06:35:08.819Z,39.30
2019-04-25T06:37:40.326Z,43.68
2019-04-25T06:40:13.803Z,47.53
2019-04-25T06:42:46.696Z,43.63
2019-04-25T06:45:30.903Z,53.83
2019-04-25T06:48:07.006Z,47.23
2019-04-25T06:50:38.626Z,45.45
2019-04-25T06:53:10.075Z,50.38
2019-04-25T06:55:43.369Z,42.27
2019-04-25T06:58:15.637Z,46.30
2019-04-25T07:00:57.918Z,41.23
2019-04-25T07:03:20.516Z,45.48
2019-04-25T07:05:53.565Z,48.78
2019-04-25T07:08:25.842Z,45.15
2019-04-25T07:10:58.202Z,53.55
2019-04-25T07:13:30.461Z,45.78
2019-04-25T07:16:03.061Z,46.02
2019-04-25T07:18:37.005Z,50.83
2019-04-25T07:21:08.374Z,44.42
2019-04-25T07:23:40.409Z,45.75
2019-04-25T07:26:14.590Z,44.83
2019-04-25T07:28:50.659Z,55.83
2019-04-25T07:31:38.745Z,44.00
2019-04-25T07:34:13.215Z,49.88
2019-04-25T07:36:45.642Z,47.60
2019-04-25T07:39:17.331Z,47.08
2019-04-25T07:41:48.773Z,49.08
2019-04-25T07:44:24.624Z,47.30
2019-04-25T07:46:54.238Z,49.38
2019-04-25T07:49:26.815Z,56.37
2019-04-25T07:51:58.486Z,57.17
2019-04-25T07:54:30.660Z,51.45
2019-04-25T07:57:03.613Z,51.98
2019-04-25T07:59:36.323Z,48.92
2019-04-25T08:02:07.768Z,54.50
2019-04-25T08:04:40.236Z,53.15
2019-04-25T08:07:11.675Z,50.98
2019-04-25T08:09:44.266Z,55.17
2019-04-25T08:12:15.909Z,51.63
2019-04-25T08:14:49.161Z,50.65
2019-04-25T08:17:39.622Z,49.95
2019-04-25T08:20:11.581Z,50.45
2019-04-25T08:22:55.862Z,49.27
2019-04-25T08:25:18.295Z,51.53
2019-04-25T08:27:50.830Z,53.40
2019-04-25T08:30:23.913Z,47.25
2019-04-25T08:32:55.375Z,50.17
2019-04-25T08:35:27.021Z,44.15
2019-04-25T08:37:58.456Z,47.23
2019-04-25T08:40:32.380Z,46.70
2019-04-25T08:43:04.220Z,49.87
2019-04-25T08:45:37.083Z,57.78
2019-04-25T08:48:08.885Z,45.30
2019-04-25T08:50:44.865Z,43.68
2019-04-25T08:53:16.872Z,49.55
2019-04-25T08:55:54.005Z,42.50
2019-04-25T08:58:44.617Z,42.90
2019-04-25T09:01:27.111Z,46.33
2019-04-25T09:04:16.334Z,44.80
2019-04-25T09:06:48.020Z,40.90
2019-04-25T09:09:19.466Z,45.88
2019-04-25T09:11:51.201Z,39.33
2019-04-25T09:14:22.647Z,47.88
2019-04-25T09:16:54.061Z,41.70
2019-04-25T09:19:25.572Z,42.45
2019-04-25T09:21:57.156Z,39.30
2019-04-25T09:24:28.669Z,39.85
2019-04-25T09:27:00.253Z,39.08
2019-04-25T09:29:34.241Z,43.90
2019-04-25T09:32:05.250Z,45.98
2019-04-25T09:34:36.711Z,36.98
2019-04-25T09:37:08.299Z,38.92
2019-04-25T09:39:44.578Z,40.45
2019-04-25T09:42:16.917Z,35.73
2019-04-25T09:45:06.504Z,34.30
2019-04-25T09:47:41.303Z,40.75
2019-04-25T09:50:29.310Z,38.13
2019-04-25T09:53:00.883Z,35.15
2019-04-25T09:55:39.749Z,33.78
2019-04-25T09:58:13.633Z,32.45
2019-04-25T10:00:47.742Z,31.82
2019-04-25T10:03:19.190Z,30.48
2019-04-25T10:05:50.673Z,33.33
2019-04-25T10:08:24.236Z,37.50
2019-04-25T10:10:55.696Z,30.92
2019-04-25T10:13:27.240Z,30.55
2019-04-25T10:16:12.376Z,36.60
2019-04-25T10:18:44.661Z,29.40
2019-04-25T10:21:17.311Z,29.85
2019-04-25T10:23:51.126Z,26.60
2019-04-25T10:26:22.972Z,22.27
2019-04-25T10:28:54.515Z,27.27
2019-04-25T10:31:26.004Z,27.65
2019-04-25T10:33:57.397Z,25.27
2019-04-25T10:36:28.866Z,28.32
2019-04-25T10:39:07.487Z,30.43
2019-04-25T10:41:35.877Z,31.33
2019-04-25T10:44:08.154Z,25.62
2019-04-25T10:46:40.194Z,28.00
2019-04-25T10:49:11.710Z,30.20
2019-04-25T10:51:44.743Z,27.37
2019-04-25T10:54:16.312Z,27.93
2019-04-25T10:56:48.375Z,34.67
2019-04-25T10:59:20.009Z,26.80
2019-04-25T11:01:51.552Z,29.77
2019-04-25T11:04:24.681Z,30.25
2019-04-25T11:06:56.134Z,27.30
2019-04-25T11:09:28.894Z,30.62
2019-04-25T11:12:00.279Z,25.88
2019-04-25T11:14:34.032Z,29.42
2019-04-25T11:17:05.480Z,31.02
2019-04-25T11:19:37.332Z,28.92
2019-04-25T11:22:08.793Z,26.75
2019-04-25T11:24:41.644Z,26.52
2019-04-25T11:27:14.715Z,26.87
2019-04-25T11:29:47.132Z,26.77
2019-04-25T11:32:20.277Z,29.87
2019-04-25T11:34:53.165Z,26.80
2019-04-25T11:37:26.779Z,29.20
2019-04-25T11:40:04.240Z,29.32
2019-04-25T11:42:37.016Z,26.60
2019-04-25T11:45:10.307Z,29.60
2019-04-25T11:47:41.677Z,30.60
2019-04-25T11:50:14.003Z,28.20
2019-04-25T11:52:46.812Z,28.50
2019-04-25T11:55:18.645Z,33.35
2019-04-25T11:57:51.322Z,29.65
2019-04-25T12:00:30.295Z,26.75
2019-04-25T12:03:03.244Z,29.07
2019-04-25T12:05:34.934Z,29.25
2019-04-25T12:08:07.072Z,29.55
2019-04-25T12:10:38.985Z,30.72
2019-04-25T12:13:10.612Z,31.50
2019-04-25T12:15:43.401Z,32.55
2019-04-25T12:18:15.096Z,26.02
2019-04-25T12:20:47.482Z,25.17
2019-04-25T12:23:18.941Z,25.08
2019-04-25T12:25:50.470Z,25.23
2019-04-25T12:28:23.420Z,28.35
2019-04-25T12:30:56.723Z,29.85
2019-04-25T12:33:29.129Z,31.42
2019-04-25T12:36:00.743Z,28.83
2019-04-25T12:38:35.098Z,29.45
2019-04-25T12:41:05.363Z,27.85
2019-04-25T12:43:38.550Z,30.15
2019-04-25T12:46:14.378Z,28.40
2019-04-25T12:48:46.049Z,28.87
2019-04-25T12:51:18.034Z,29.87
2019-04-25T12:53:49.417Z,28.38
2019-04-25T12:56:20.862Z,28.40
2019-04-25T12:58:53.814Z,30.27
2019-04-25T13:01:25.595Z,31.20
2019-04-25T13:03:57.122Z,34.85
2019-04-25T13:06:28.736Z,28.02
2019-04-25T13:09:00.134Z,34.85
2019-04-25T13:11:31.536Z,30.52
2019-04-25T13:14:02.934Z,29.30
2019-04-25T13:16:34.417Z,32.67
2019-04-25T13:19:16.369Z,29.70
2019-04-25T13:21:39.019Z,26.97
2019-04-25T13:24:10.569Z,31.05
2019-04-25T13:26:43.696Z,27.55
2019-04-25T13:29:24.634Z,29.12
2019-04-25T13:32:05.252Z,30.00
2019-04-25T13:34:38.923Z,31.00
2019-04-25T13:37:10.620Z,29.40
2019-04-25T13:39:42.087Z,29.50
2019-04-25T13:42:14.395Z,29.18
2019-04-25T13:44:45.945Z,32.00
2019-04-25T13:47:17.802Z,28.35
2019-04-25T13:49:49.484Z,25.30
2019-04-25T13:52:20.900Z,26.25
2019-04-25T13:54:53.779Z,31.77
2019-04-25T13:57:26.217Z,27.35
2019-04-25T13:59:57.892Z,33.92
2019-04-25T14:02:29.491Z,36.28
2019-04-25T14:05:01.089Z,34.67
2019-04-25T14:07:32.863Z,29.90
2019-04-25T14:10:05.762Z,29.90
2019-04-25T14:12:37.443Z,31.07
2019-04-25T14:15:10.597Z,32.42
2019-04-25T14:17:56.214Z,33.00
2019-04-25T14:20:30.004Z,28.42
2019-04-25T14:23:03.456Z,28.27
2019-04-25T14:25:35.368Z,26.33
2019-04-25T14:28:06.955Z,29.55
2019-04-25T14:30:38.942Z,31.23
2019-04-25T14:33:10.535Z,28.38
2019-04-25T14:35:42.097Z,30.45
2019-04-25T14:38:14.905Z,29.95
2019-04-25T14:40:46.465Z,27.37
2019-04-25T14:43:18.215Z,29.90
2019-04-25T14:45:49.919Z,34.20
2019-04-25T14:48:22.579Z,28.52
2019-04-25T14:50:54.904Z,30.12
2019-04-25T14:53:26.390Z,30.70
2019-04-25T14:56:02.573Z,27.32
2019-04-25T14:58:35.841Z,28.00
2019-04-25T15:01:07.596Z,29.40
2019-04-25T15:03:39.453Z,32.05
2019-04-25T15:06:10.884Z,33.55
2019-04-25T15:08:42.504Z,32.65
2019-04-25T15:11:13.966Z,29.65
2019-04-25T15:13:45.506Z,32.33
2019-04-25T15:16:17.003Z,35.03
2019-04-25T15:18:48.508Z,32.10
2019-04-25T15:21:20.071Z,28.87
2019-04-25T15:23:59.925Z,39.60
2019-04-25T15:26:25.266Z,46.18
2019-04-25T15:28:57.813Z,37.00
2019-04-25T15:31:32.036Z,35.63
2019-04-25T15:34:07.513Z,38.08
2019-04-25T15:36:54.038Z,36.95
2019-04-25T15:39:33.423Z,35.63
2019-04-25T15:42:12.292Z,37.67
2019-04-25T15:45:01.679Z,33.28
2019-04-25T15:47:37.259Z,42.93
2019-04-25T15:50:10.498Z,48.55
2019-04-25T15:52:47.481Z,52.50
2019-04-25T15:55:22.375Z,49.67
2019-04-25T15:57:54.367Z,56.35
2019-04-25T16:00:29.362Z,53.80
2019-04-25T16:03:01.911Z,53.33
2019-04-25T16:05:40.137Z,60.05
2019-04-25T16:08:13.192Z,61.58
2019-04-25T16:10:44.849Z,63.10
2019-04-25T16:13:17.227Z,51.83
2019-04-25T16:15:48.781Z,58.83
2019-04-25T16:18:26.212Z,57.70
2019-04-25T16:21:01.870Z,65.30
2019-04-25T16:23:34.382Z,55.48
2019-04-25T16:26:06.173Z,66.05
2019-04-25T16:28:37.617Z,76.85
2019-04-25T16:31:10.758Z,63.60
2019-04-25T16:33:42.208Z,64.60
2019-04-25T16:36:13.817Z,77.03
2019-04-25T16:38:45.281Z,71.00
2019-04-25T16:41:17.168Z,68.80
2019-04-25T16:43:50.288Z,96.67
2019-04-25T16:46:22.468Z,76.75
2019-04-25T16:48:54.027Z,102.65
2019-04-25T16:51:25.632Z,86.95
2019-04-25T16:53:58.138Z,94.30
2019-04-25T16:56:30.593Z,84.20
2019-04-25T16:59:02.250Z,84.60
2019-04-25T17:01:33.834Z,79.40
2019-04-25T17:04:05.382Z,84.62
2019-04-25T17:06:36.859Z,97.62
2019-04-25T17:09:09.373Z,88.72
2019-04-25T17:11:42.340Z,91.17
2019-04-25T17:14:18.613Z,100.15
2019-04-25T17:16:54.926Z,88.95
2019-04-25T17:19:28.066Z,77.97
2019-04-25T17:21:59.602Z,76.77
2019-04-25T17:24:31.208Z,84.80
2019-04-25T17:27:02.635Z,88.95
2019-04-25T17:29:35.184Z,94.17
2019-04-25T17:32:14.231Z,97.53
2019-04-25T17:34:50.048Z,82.78
2019-04-25T17:37:29.128Z,77.53
2019-04-25T17:40:05.292Z,75.35
2019-04-25T17:42:36.822Z,73.25
2019-04-25T17:45:10.129Z,70.45
2019-04-25T17:47:53.779Z,67.97
2019-04-25T17:50:14.775Z,79.00
2019-04-25T17:52:46.181Z,66.02
2019-04-25T17:55:17.630Z,69.42
2019-04-25T17:57:49.125Z,65.12
2019-04-25T18:00:29.133Z,56.35
2019-04-25T18:03:00.627Z,47.33
2019-04-25T18:05:32.310Z,54.18
2019-04-25T18:08:03.862Z,47.25
2019-04-25T18:10:36.175Z,68.33
2019-04-25T18:13:09.454Z,48.45
2019-04-25T18:15:45.959Z,52.95
2019-04-25T18:18:37.098Z,47.03
2019-04-25T18:21:08.602Z,44.58
2019-04-25T18:23:47.456Z,38.75
2019-04-25T18:26:21.592Z,37.35
2019-04-25T18:28:54.673Z,43.42
2019-04-25T18:31:27.196Z,41.07
2019-04-25T18:34:00.249Z,43.92
2019-04-25T18:36:33.477Z,44.90
2019-04-25T18:39:08.237Z,42.05
2019-04-25T18:41:48.714Z,44.73
2019-04-25T18:44:20.112Z,45.25
2019-04-25T18:46:51.592Z,42.75
2019-04-25T18:49:23.092Z,44.05
2019-04-25T18:51:58.137Z,42.27
2019-04-25T18:54:31.032Z,41.92
2019-04-25T18:57:20.690Z,43.83
2019-04-25T18:59:58.274Z,49.80
2019-04-25T19:02:46.669Z,49.80
2019-04-25T19:05:25.957Z,46.70
2019-04-25T19:07:57.581Z,45.48
2019-04-25T19:10:29.157Z,50.15
2019-04-25T19:13:12.101Z,45.98
2019-04-25T19:15:34.513Z,53.95
2019-04-25T19:18:06.043Z,51.28
2019-04-25T19:20:37.654Z,43.33
2019-04-25T19:23:09.252Z,56.28
2019-04-25T19:25:41.603Z,43.90
2019-04-25T19:28:13.182Z,47.60
2019-04-25T19:30:45.121Z,45.20
2019-04-25T19:33:18.207Z,50.03
2019-04-25T19:35:49.696Z,48.00
2019-04-25T19:38:22.657Z,41.75
2019-04-25T19:41:00.097Z,41.85
2019-04-25T19:43:38.708Z,41.08
2019-04-25T19:46:10.367Z,44.30
2019-04-25T19:48:42.702Z,42.67
2019-04-25T19:51:14.113Z,37.60
2019-04-25T19:53:45.615Z,38.53
2019-04-25T19:56:17.045Z,39.63
2019-04-25T19:58:48.676Z,40.17
2019-04-25T20:01:21.077Z,40.67
2019-04-25T20:03:58.340Z,40.38
2019-04-25T20:09:16.107Z,40.05
2019-04-25T20:11:49.426Z,39.45
2019-04-25T20:14:20.943Z,39.60
2019-04-25T20:16:52.494Z,36.17
2019-04-25T20:19:23.966Z,36.85
2019-04-25T20:21:55.374Z,34.53
2019-04-25T20:24:27.762Z,39.40
2019-04-25T20:27:00.332Z,36.33
2019-04-25T20:29:33.016Z,35.30
2019-04-25T20:32:07.040Z,34.78
2019-04-25T20:34:37.620Z,38.73
2019-04-25T20:37:09.215Z,41.77
2019-04-25T20:39:40.689Z,37.23
2019-04-25T20:42:12.136Z,35.33
2019-04-25T20:44:43.549Z,33.78
2019-04-25T20:47:15.249Z,35.80
2019-04-25T20:49:46.766Z,32.70
2019-04-25T20:52:18.273Z,40.08
2019-04-25T20:54:50.693Z,36.15
2019-04-25T20:57:22.303Z,37.50
2019-04-25T20:59:53.918Z,33.58
2019-04-25T21:02:25.514Z,41.58
2019-04-25T21:04:56.933Z,34.60
2019-04-25T21:07:28.360Z,42.40
2019-04-25T21:09:59.835Z,38.70
2019-04-25T21:12:31.746Z,39.40
2019-04-25T21:15:19.657Z,43.38
2019-04-25T21:18:09.023Z,45.33
2019-04-25T21:20:40.585Z,52.58
2019-04-25T21:23:12.000Z,47.38
2019-04-25T21:25:43.449Z,50.17
2019-04-25T21:28:14.923Z,48.30
2019-04-25T21:30:46.540Z,51.37
2019-04-25T21:33:18.019Z,51.60
2019-04-25T21:35:49.756Z,52.98
2019-04-25T21:38:22.596Z,53.25
2019-04-25T21:40:55.745Z,50.50
2019-04-25T21:43:29.078Z,58.48
2019-04-25T21:46:01.074Z,59.85
2019-04-25T21:48:32.948Z,65.70
2019-04-25T21:51:07.524Z,69.30
2019-04-25T21:53:39.032Z,73.60
2019-04-25T21:56:11.563Z,74.85
2019-04-25T21:58:42.979Z,76.33
2019-04-25T22:01:16.446Z,80.17
2019-04-25T22:03:48.043Z,82.88
2019-04-25T22:06:20.094Z,82.40
2019-04-25T22:08:51.599Z,82.37
2019-04-25T22:11:23.177Z,84.17
2019-04-25T22:13:54.973Z,76.35
2019-04-25T22:16:26.888Z,74.53
2019-04-25T22:18:58.523Z,78.00
2019-04-25T22:21:37.989Z,70.65
2019-04-25T22:24:11.171Z,70.72
2019-04-25T22:26:37.002Z,68.57
2019-04-25T22:29:08.667Z,63.40
2019-04-25T22:31:53.833Z,60.15
2019-04-25T22:37:00.379Z,59.38
2019-04-25T22:39:31.757Z,60.10
2019-04-25T22:42:03.899Z,53.52
2019-04-25T22:44:35.785Z,59.40
2019-04-25T22:47:08.390Z,55.50
2019-04-25T22:49:39.838Z,47.50
2019-04-25T22:52:11.515Z,54.53
2019-04-25T22:54:43.071Z,48.80
2019-04-25T22:57:14.803Z,45.85
2019-04-25T22:59:46.552Z,43.35
2019-04-25T23:02:22.505Z,47.50
2019-04-25T23:05:05.538Z,42.40
2019-04-25T23:07:32.033Z,42.65
2019-04-25T23:10:06.252Z,42.08
2019-04-25T23:12:38.215Z,38.67
2019-04-25T23:15:10.926Z,39.78
2019-04-25T23:17:42.649Z,31.68
2019-04-25T23:20:14.508Z,31.97
2019-04-25T23:22:46.161Z,34.88
2019-04-25T23:25:19.587Z,36.63
2019-04-25T23:28:01.628Z,44.25
2019-04-25T23:30:38.198Z,33.23
2019-04-25T23:33:10.587Z,34.90
2019-04-25T23:35:44.890Z,33.92
2019-04-25T23:38:16.291Z,30.10
2019-04-25T23:40:47.776Z,30.90
2019-04-25T23:43:19.435Z,30.57
2019-04-25T23:45:50.892Z,35.45
2019-04-25T23:48:22.648Z,30.90
2019-04-25T23:50:54.068Z,38.08
2019-04-25T23:53:25.503Z,37.23
2019-04-25T23:55:56.939Z,35.43
2019-04-25T23:58:28.346Z,30.27
